Fishhead, Alabama
Current Conditions -  °F | °C
As of 2:53 PM on Tuesday 21 Oct 2014 (Local Time) from KANB Reporting Station
Scattered Clouds Scattered Clouds  
Wind Chill: 77°   Ceiling: Unl
Heat Index: 78°   Visibility: 10mi
Dew Point: 51°   Wind: 13mph
Humidity: 40%   Direction: 280°W
Pressure: 29.98"   Gusts: 22mph
Location:  33.4483°N, 85.6826°W
Report Text: KANB 211953Z AUTO 28011G19KT 10SM SCT050 25/11 A2998 RMK AO2 SLP148 T02500106
Loading
Personal Weather Stations






























Interactive Weather Map
Tropical Storm Tracking
New forecast layout! Learn more

10-Day Weather Forecast

Advertisements
Track Severe Weather on mobile